Airport View

Enter AWOS ICAO identifier for current METAR.

ex. KFNL

PAFS 261101Z AUTO 00000KT 10SM CLR 14/12 A3006

26 Jun 2019 12:01

Frequency: 118.325

Phone: 907-293-2002

Other Area AWOS: PAMC - PATL - PAPT - PAMH

TAF PAMC 261122Z 2612/2712 VRB06KT P6SM FEW050 SCT100 SCT200 FM270000 VRB06KT P6SM SCT050 BKN100 BKN200